Time;durP1;ratioP1;P1;durP2;ratioP2;P2;SDS_P1;SDS_P2;PMS_P1;PMS_P2;Temp;Humidity;BMP_temperature;BMP_pressure;BME280_temperature;BME280_humidity;BME280_pressure;Samples;Min_cycle;Max_cycle;Signal;HPM_P1;HPM_P2
2021/10/16 07:01:12;;;;;;;;;;;;;;;;;;5057622;27;83455;-54
2021/10/16 07:03:37;;;;;;;;;;;;;;;;;;5049188;27;89180;-55
2021/10/16 07:06:03;;;;;;;;;;;;;;;;;;5045277;27;89071;-54
2021/10/16 07:08:29;;;;;;;;;;;;;;;;;;5029673;27;89772;-56
2021/10/16 07:10:58;;;;;;;;;;;;;;;;;;5030072;27;89593;-57
2021/10/16 07:13:24;;;;;;;;;;;;;;;;;;5044453;27;91988;-57
2021/10/16 07:15:50;;;;;;;;;;;;;;;;;;5048816;27;88962;-57
2021/10/16 07:18:16;;;;;;;;;;;;;;;;;;5048799;27;90837;-56
2021/10/16 07:20:41;;;;;;;;;;;;;;;;;;5051407;27;91750;-58
2021/10/16 07:23:07;;;;;;;;;;;;;;;;;;5050081;27;89611;-57
2021/10/16 07:25:32;;;;;;;;;;;;;;;;;;5049672;27;88982;-56
2021/10/16 07:27:58;;;;;;;;;;;;;;;;;;5050027;27;89092;-56
2021/10/16 07:30:24;;;;;;;;;;;;;;;;;;5048311;27;90813;-56
2021/10/16 07:32:50;;;;;;;;;;;;;;;;;;5048363;27;90659;-55
2021/10/16 07:35:15;;;;;;;;;;;;;;;;;;5048540;27;89006;-55
2021/10/16 07:37:41;;;;;;;;;;;;;;;;;;5049761;27;90096;-57
2021/10/16 07:40:07;;;;;;;;;;;;;;;;;;5048381;27;91647;-54
2021/10/16 07:42:33;;;;;;;;;;;;;;;;;;5051363;27;89033;-55
2021/10/16 07:44:58;;;;;;;;;;;;;;;;;;5049535;27;89223;-57
2021/10/16 07:47:26;;;;;;;;;;;;;;;;;;5048431;27;89014;-57
2021/10/16 07:49:52;;;;;;;;;;;;;;;;;;5049557;27;89621;-56
2021/10/16 07:52:18;;;;;;;;;;;;;;;;;;5048013;27;91811;-56
2021/10/16 07:54:43;;;;;;;;;;;;;;;;;;5049538;27;88982;-54
2021/10/16 07:57:08;;;;;;;;;;;;;;;;;;5049518;27;89776;-57
2021/10/16 07:59:34;;;;;;;;;;;;;;;;;;5047750;27;90407;-58
2021/10/16 08:01:59;;;;;;;;;;;;;;;;;;5047989;27;89229;-57
2021/10/16 08:04:25;;;;;;;;;;;;;;;;;;5050835;27;90893;-56
2021/10/16 08:06:50;;;;;;;;;;;;;;;;;;5049186;27;89034;-57
2021/10/16 08:09:16;;;;;;;;;;;;;;;;;;5047951;27;92470;-59
2021/10/16 08:11:41;;;;;;;;;;;;;;;;;;5038621;27;92106;-59
2021/10/16 08:14:07;;;;;;;;;;;;;;;;;;5034501;28;88962;-57
2021/10/16 08:16:32;;;;;;;;;;;;;;;;;;5051087;27;92012;-55
2021/10/16 08:18:58;;;;;;;;;;;;;;;;;;5035190;28;89124;-56
2021/10/16 08:21:24;;;;;;;;;;;;;;;;;;5034181;28;88926;-53
2021/10/16 08:23:49;;;;;;;;;;;;;;;;;;5032570;28;92337;-52
2021/10/16 08:26:15;;;;;;;;;;;;;;;;;;5036790;28;90366;-57
2021/10/16 08:28:40;;;;;;;;;;;;;;;;;;5033928;28;91513;-53
2021/10/16 08:31:06;;;;;;;;;;;;;;;;;;5033608;28;92063;-53
2021/10/16 08:33:34;;;;;;;;;;;;;;;;;;5035224;28;89159;-54
2021/10/16 08:36:00;;;;;;;;;;;;;;;;;;5033861;28;92617;-58
2021/10/16 08:38:26;;;;;;;;;;;;;;;;;;5034869;27;89277;-54
2021/10/16 08:40:52;;;;;;;;;;;;;;;;;;5035064;27;88995;-54
2021/10/16 08:43:18;;;;;;;;;;;;;;;;;;5035255;28;90271;-55
2021/10/16 08:45:44;;;;;;;;;;;;;;;;;;5034979;27;89258;-55
2021/10/16 08:48:11;;;;;;;;;;;;;;;;;;5038043;27;89003;-54
2021/10/16 08:50:37;;;;;;;;;;;;;;;;;;5033451;27;89911;-54
2021/10/16 08:53:02;;;;;;;;;;;;;;;;;;5033605;28;89027;-54
2021/10/16 08:55:28;;;;;;;;;;;;;;;;;;5033395;28;92481;-54
2021/10/16 08:57:53;;;;;;;;;;;;;;;;;;4959843;27;93285;-54
2021/10/16 09:00:39;;;;;;;;;;;;;;;;;;5027159;27;91129;-55
2021/10/16 09:03:24;;;;;;;;;;;;;;;;;;5034844;27;90667;-54
2021/10/16 09:05:57;;;;;;;;;;;;;;;;;;5033219;28;90827;-54
2021/10/16 09:08:42;;;;;;;;;;;;;;;;;;5033343;28;88994;-57
2021/10/16 09:11:12;;;;;;;;;;;;;;;;;;5035824;28;89195;-56
2021/10/16 09:13:42;;;;;;;;;;;;;;;;;;5034788;27;89069;-54
2021/10/16 09:16:18;;;;;;;;;;;;;;;;;;5033434;28;92360;-54
2021/10/16 09:18:52;;;;;;;;;;;;;;;;;;5034629;27;89019;-55
2021/10/16 09:21:17;;;;;;;;;;;;;;;;;;5034658;27;89012;-54
2021/10/16 09:23:43;;;;;;;;;;;;;;;;;;5032265;28;90816;-55
2021/10/16 09:26:08;;;;;;;;;;;;;;;;;;5034091;28;89108;-56
2021/10/16 09:28:36;;;;;;;;;;;;;;;;;;5033224;28;89109;-55
2021/10/16 09:31:08;;;;;;;;;;;;;;;;;;5036744;28;89608;-56
2021/10/16 09:33:53;;;;;;;;;;;;;;;;;;5014433;28;91799;-55
2021/10/16 09:36:21;;;;;;;;;;;;;;;;;;5032914;28;94966;-54
2021/10/16 09:38:46;;;;;;;;;;;;;;;;;;5032880;28;91786;-55
2021/10/16 09:41:33;;;;;;;;;;;;;;;;;;5033413;28;88872;-55
2021/10/16 09:43:59;;;;;;;;;;;;;;;;;;5032909;28;92724;-54
2021/10/16 09:46:25;;;;;;;;;;;;;;;;;;5034002;27;89217;-54
2021/10/16 09:48:51;;;;;;;;;;;;;;;;;;5032924;28;89028;-53
2021/10/16 09:51:17;;;;;;;;;;;;;;;;;;5034183;28;89000;-54
2021/10/16 09:53:46;;;;;;;;;;;;;;;;;;5035381;28;91939;-52
2021/10/16 09:56:12;;;;;;;;;;;;;;;;;;5032405;28;92427;-56
2021/10/16 09:58:38;;;;;;;;;;;;;;;;;;5033655;28;89108;-56
2021/10/16 10:01:04;;;;;;;;;;;;;;;;;;5032392;28;89930;-58
2021/10/16 10:03:31;;;;;;;;;;;;;;;;;;5033913;28;89511;-54
2021/10/16 10:05:57;;;;;;;;;;;;;;;;;;5032283;28;91966;-54
2021/10/16 10:08:22;;;;;;;;;;;;;;;;;;5033797;27;88975;-53
2021/10/16 10:10:48;;;;;;;;;;;;;;;;;;5033930;28;89653;-55
2021/10/16 10:13:14;;;;;;;;;;;;;;;;;;5033598;27;90114;-54
2021/10/16 10:15:39;;;;;;;;;;;;;;;;;;5035347;28;88960;-54
2021/10/16 10:20:52;;;;;;;;;;;;;;;;;;5033742;27;88994;-53
2021/10/16 10:23:21;;;;;;;;;;;;;;;;;;5032561;28;92733;-54
2021/10/16 10:25:47;;;;;;;;;;;;;;;;;;5032375;28;91834;-54
2021/10/16 10:28:12;;;;;;;;;;;;;;;;;;5033606;28;88899;-54
2021/10/16 10:30:39;;;;;;;;;;;;;;;;;;5032263;28;92557;-54
2021/10/16 10:33:24;;;;;;;;;;;;;;;;;;5015407;28;91818;-54
2021/10/16 10:36:10;;;;;;;;;;;;;;;;;;5033655;27;89512;-54
2021/10/16 10:38:37;;;;;;;;;;;;;;;;;;5036204;28;89484;-54
2021/10/16 10:41:23;;;;;;;;;;;;;;;;;;5033345;27;88996;-54
2021/10/16 10:43:49;;;;;;;;;;;;;;;;;;5032430;28;92545;-54
2021/10/16 10:46:14;;;;;;;;;;;;;;;;;;5031979;28;91727;-54
2021/10/16 10:48:46;;;;;;;;;;;;;;;;;;5015283;28;89170;-54
2021/10/16 10:51:36;;;;;;;;;;;;;;;;;;5032131;28;90853;-54
2021/10/16 10:54:22;;;;;;;;;;;;;;;;;;5033154;28;89156;-55
2021/10/16 10:56:52;;;;;;;;;;;;;;;;;;5032203;28;88954;-54
2021/10/16 10:59:19;;;;;;;;;;;;;;;;;;5031933;28;91363;-54
2021/10/16 11:01:46;;;;;;;;;;;;;;;;;;5034612;28;92184;-54
2021/10/16 11:04:31;;;;;;;;;;;;;;;;;;5031860;28;92411;-54
2021/10/16 11:06:58;;;;;;;;;;;;;;;;;;5031717;28;91873;-54
2021/10/16 11:09:24;;;;;;;;;;;;;;;;;;5031874;28;89115;-53
2021/10/16 11:11:50;;;;;;;;;;;;;;;;;;5032011;28;92349;-54
2021/10/16 11:14:16;;;;;;;;;;;;;;;;;;5031815;28;90182;-53
2021/10/16 11:17:01;;;;;;;;;;;;;;;;;;5014885;28;88982;-54
2021/10/16 11:19:27;;;;;;;;;;;;;;;;;;5031684;28;90826;-54
2021/10/16 11:21:56;;;;;;;;;;;;;;;;;;5035848;28;90025;-54
2021/10/16 11:24:22;;;;;;;;;;;;;;;;;;5032952;28;89504;-54
2021/10/16 11:26:55;;;;;;;;;;;;;;;;;;5031460;28;92063;-54
2021/10/16 11:29:28;;;;;;;;;;;;;;;;;;5033027;27;89093;-54
2021/10/16 11:32:10;;;;;;;;;;;;;;;;;;5031542;28;92443;-54
2021/10/16 11:34:35;;;;;;;;;;;;;;;;;;5031271;28;90241;-54
2021/10/16 11:37:01;;;;;;;;;;;;;;;;;;5032717;27;88887;-54
2021/10/16 11:39:29;;;;;;;;;;;;;;;;;;5032607;28;89409;-54
2021/10/16 11:41:55;;;;;;;;;;;;;;;;;;5032450;28;89104;-53
2021/10/16 11:44:20;;;;;;;;;;;;;;;;;;5034216;28;89067;-58
2021/10/16 11:46:56;;;;;;;;;;;;;;;;;;5049509;27;92520;-58
2021/10/16 11:49:23;;;;;;;;;;;;;;;;;;5036148;27;88882;-58
2021/10/16 11:51:49;;;;;;;;;;;;;;;;;;5034588;28;92434;-58
2021/10/16 11:54:15;;;;;;;;;;;;;;;;;;5034270;28;92416;-59
2021/10/16 11:56:41;;;;;;;;;;;;;;;;;;5035755;28;88920;-58
2021/10/16 11:59:06;;;;;;;;;;;;;;;;;;5034264;28;92314;-58
2021/10/16 12:01:43;;;;;;;;;;;;;;;;;;5035658;27;89170;-57
2021/10/16 12:04:11;;;;;;;;;;;;;;;;;;5034688;28;88881;-59
2021/10/16 12:06:36;;;;;;;;;;;;;;;;;;5037287;28;92206;-58
2021/10/16 12:09:03;;;;;;;;;;;;;;;;;;5034244;28;89334;-57
2021/10/16 12:11:30;;;;;;;;;;;;;;;;;;5034244;28;92394;-57
2021/10/16 12:14:09;;;;;;;;;;;;;;;;;;5017279;28;91833;-58
2021/10/16 12:16:37;;;;;;;;;;;;;;;;;;5035572;27;88912;-57
2021/10/16 12:19:04;;;;;;;;;;;;;;;;;;5035480;28;88853;-57
2021/10/16 12:21:38;;;;;;;;;;;;;;;;;;5035034;27;89325;-62
2021/10/16 12:24:23;;;;;;;;;;;;;;;;;;5034054;28;88973;-66
2021/10/16 12:26:49;;;;;;;;;;;;;;;;;;5034000;28;92508;-57
2021/10/16 12:29:35;;;;;;;;;;;;;;;;;;5036736;28;90212;-60
2021/10/16 12:32:00;;;;;;;;;;;;;;;;;;5035421;28;88914;-59
2021/10/16 12:34:28;;;;;;;;;;;;;;;;;;5033870;28;91868;-58
2021/10/16 12:36:54;;;;;;;;;;;;;;;;;;5035477;27;88948;-58
2021/10/16 12:39:39;;;;;;;;;;;;;;;;;;5033694;28;92515;-56
2021/10/16 12:42:15;;;;;;;;;;;;;;;;;;5033712;28;91812;-58
2021/10/16 12:44:43;;;;;;;;;;;;;;;;;;5033859;28;89006;-58
2021/10/16 12:47:10;;;;;;;;;;;;;;;;;;5035224;28;89021;-60
2021/10/16 12:49:39;;;;;;;;;;;;;;;;;;5034608;27;89248;-57
2021/10/16 12:52:24;;;;;;;;;;;;;;;;;;5036530;28;88908;-57
2021/10/16 12:54:49;;;;;;;;;;;;;;;;;;5034824;28;89181;-56
2021/10/16 12:57:15;;;;;;;;;;;;;;;;;;5033570;28;89176;-56
2021/10/16 12:59:41;;;;;;;;;;;;;;;;;;5033115;28;92430;-56
2021/10/16 13:02:07;;;;;;;;;;;;;;;;;;5034627;28;89084;-54
2021/10/16 13:04:39;;;;;;;;;;;;;;;;;;5033443;28;89044;-56
2021/10/16 13:07:05;;;;;;;;;;;;;;;;;;5034691;27;89404;-56
2021/10/16 13:09:30;;;;;;;;;;;;;;;;;;5050009;27;89366;-57
2021/10/16 13:11:56;;;;;;;;;;;;;;;;;;5033338;28;88943;-56
2021/10/16 13:14:21;;;;;;;;;;;;;;;;;;5037168;28;92282;-57
2021/10/16 13:16:47;;;;;;;;;;;;;;;;;;5034534;27;89034;-57
2021/10/16 13:19:12;;;;;;;;;;;;;;;;;;5034610;27;89437;-56
2021/10/16 13:21:38;;;;;;;;;;;;;;;;;;5034047;27;89349;-57
2021/10/16 13:24:03;;;;;;;;;;;;;;;;;;5033224;28;89209;-58
2021/10/16 13:26:29;;;;;;;;;;;;;;;;;;5034445;27;90473;-58
2021/10/16 13:28:54;;;;;;;;;;;;;;;;;;5034103;27;90986;-57
2021/10/16 13:31:20;;;;;;;;;;;;;;;;;;5033317;28;89372;-58
2021/10/16 13:33:45;;;;;;;;;;;;;;;;;;5037048;28;88975;-58
2021/10/16 13:36:11;;;;;;;;;;;;;;;;;;5016285;28;88998;-59
2021/10/16 13:38:36;;;;;;;;;;;;;;;;;;5032873;28;92544;-58
2021/10/16 13:41:04;;;;;;;;;;;;;;;;;;5032522;28;91958;-60
2021/10/16 13:43:30;;;;;;;;;;;;;;;;;;5034172;27;89009;-57
2021/10/16 13:45:56;;;;;;;;;;;;;;;;;;5032877;28;90827;-60
2021/10/16 13:48:21;;;;;;;;;;;;;;;;;;5032528;28;92355;-58
2021/10/16 13:50:47;;;;;;;;;;;;;;;;;;5032654;28;89060;-58
2021/10/16 13:53:12;;;;;;;;;;;;;;;;;;5032459;28;91761;-59
2021/10/16 13:55:38;;;;;;;;;;;;;;;;;;5035453;28;91862;-60
2021/10/16 13:58:03;;;;;;;;;;;;;;;;;;5032580;28;92677;-57
2021/10/16 14:00:29;;;;;;;;;;;;;;;;;;5033394;27;89312;-59
2021/10/16 14:02:54;;;;;;;;;;;;;;;;;;5032721;28;89106;-59
2021/10/16 14:05:20;;;;;;;;;;;;;;;;;;5033980;28;90651;-60
2021/10/16 14:07:45;;;;;;;;;;;;;;;;;;5033386;27;90970;-60
2021/10/16 14:10:11;;;;;;;;;;;;;;;;;;5031957;28;88996;-54
2021/10/16 14:12:36;;;;;;;;;;;;;;;;;;5032552;28;92052;-55
2021/10/16 14:15:02;;;;;;;;;;;;;;;;;;5033770;27;89164;-68
2021/10/16 14:17:27;;;;;;;;;;;;;;;;;;5018743;28;88988;-60
2021/10/16 14:19:53;;;;;;;;;;;;;;;;;;5033522;27;89264;-61
2021/10/16 14:22:18;;;;;;;;;;;;;;;;;;5032379;28;89086;-62
2021/10/16 14:24:44;;;;;;;;;;;;;;;;;;5033870;28;89551;-51
2021/10/16 14:27:10;;;;;;;;;;;;;;;;;;5032061;28;91933;-51
2021/10/16 14:29:35;;;;;;;;;;;;;;;;;;5033477;28;88977;-51
2021/10/16 14:32:01;;;;;;;;;;;;;;;;;;5033481;27;90683;-49
2021/10/16 14:34:29;;;;;;;;;;;;;;;;;;5026028;28;91927;-53
2021/10/16 14:36:54;;;;;;;;;;;;;;;;;;5030811;28;89080;-50
